Time;durP1;ratioP1;P1;durP2;ratioP2;P2;SDS_P1;SDS_P2;PMS_P1;PMS_P2;Temp;Humidity;BMP_temperature;BMP_pressure;BME280_temperature;BME280_humidity;BME280_pressure;Samples;Min_cycle;Max_cycle;Signal;HPM_P1;HPM_P2
2022/08/02 00:01:45;;;;;;;5.57;1.80;;;;;;;16.76;57.74;101681.47;5117595;27;20042;-85
2022/08/02 00:04:11;;;;;;;5.07;1.90;;;;;;;16.75;57.69;101679.78;5117598;27;20046;-85
2022/08/02 00:06:37;;;;;;;4.57;1.70;;;;;;;16.72;58.13;101690.41;5134844;27;20053;-84
2022/08/02 00:09:04;;;;;;;2.92;1.70;;;;;;;16.65;57.50;101688.63;5135918;27;20459;-84
2022/08/02 00:11:29;;;;;;;3.40;1.50;;;;;;;16.63;58.59;101678.94;5135150;27;20141;-84
2022/08/02 00:13:55;;;;;;;5.93;1.58;;;;;;;16.63;59.07;101668.00;5100094;27;20126;-84
2022/08/02 00:16:20;;;;;;;3.70;1.57;;;;;;;16.66;59.10;101673.81;5150972;27;20038;-84
2022/08/02 00:18:46;;;;;;;4.45;1.60;;;;;;;16.64;59.19;101673.22;5116948;27;20129;-84
2022/08/02 00:21:11;;;;;;;6.63;1.77;;;;;;;16.66;58.69;101682.03;5100253;27;20031;-84
2022/08/02 00:23:37;;;;;;;4.33;1.80;;;;;;;16.66;57.83;101686.69;5134033;27;20391;-84
2022/08/02 00:26:02;;;;;;;3.95;1.50;;;;;;;16.65;58.60;101685.88;5099894;27;20428;-84
2022/08/02 00:28:28;;;;;;;2.43;1.53;;;;;;;16.67;58.12;101685.63;5116957;27;20112;-84
2022/08/02 00:30:55;;;;;;;10.77;2.13;;;;;;;16.71;57.67;101694.19;5135130;27;20031;-84
2022/08/02 00:33:21;;;;;;;4.07;1.53;;;;;;;16.73;57.59;101695.66;5135117;27;20039;-84
2022/08/02 00:35:46;;;;;;;4.77;1.50;;;;;;;16.73;57.64;101695.66;5133746;27;20432;-84
2022/08/02 00:38:12;;;;;;;2.90;1.30;;;;;;;16.72;56.41;101691.22;5099557;27;20292;-84
2022/08/02 00:40:37;;;;;;;3.17;1.40;;;;;;;16.73;56.05;101683.88;5116561;27;20027;-85
2022/08/02 00:43:05;;;;;;;5.00;1.65;;;;;;;16.73;55.76;101687.44;5116388;27;20023;-84
2022/08/02 00:45:31;;;;;;;4.27;1.47;;;;;;;16.73;56.03;101681.94;5117323;27;20087;-84
2022/08/02 00:47:57;;;;;;;2.70;1.40;;;;;;;16.74;55.52;101680.03;5116725;27;20114;-84
2022/08/02 00:50:22;;;;;;;3.42;1.30;;;;;;;16.72;55.18;101687.66;5133604;27;20027;-84
2022/08/02 00:52:48;;;;;;;7.20;1.50;;;;;;;16.72;55.43;101677.53;5099471;27;20065;-85
2022/08/02 00:55:13;;;;;;;4.63;1.30;;;;;;;16.74;55.59;101677.28;5116219;28;20080;-85
2022/08/02 00:57:39;;;;;;;5.83;1.43;;;;;;;16.73;55.70;101664.69;5135136;28;20023;-84
2022/08/02 01:00:05;;;;;;;2.40;1.20;;;;;;;16.70;55.30;101665.13;5099645;28;20044;-84
2022/08/02 01:02:31;;;;;;;5.37;1.40;;;;;;;16.71;55.53;101659.44;5134517;28;20322;-84
2022/08/02 01:04:56;;;;;;;5.90;1.63;;;;;;;16.72;55.75;101654.78;5116874;28;20413;-85
2022/08/02 01:07:22;;;;;;;4.07;1.30;;;;;;;16.71;55.64;101650.38;5081872;28;20055;-84
2022/08/02 01:09:47;;;;;;;2.80;1.10;;;;;;;16.70;56.11;101652.28;5099096;28;20057;-84
2022/08/02 01:12:13;;;;;;;3.50;1.43;;;;;;;16.65;56.36;101655.72;5099831;28;20039;-84
2022/08/02 01:14:44;;;;;;;2.40;1.10;;;;;;;16.65;56.60;101658.47;5116816;28;20279;-84
2022/08/02 01:17:44;;;;;;;3.60;1.50;;;;;;;16.67;55.91;101666.47;5117022;27;20066;-84
2022/08/02 01:20:45;;;;;;;5.03;1.57;;;;;;;16.70;56.64;101665.97;5120118;27;20050;-84
2022/08/02 01:23:35;;;;;;;3.15;1.15;;;;;;;16.70;56.38;101662.38;5120683;27;20070;-84
2022/08/02 01:26:16;;;;;;;3.42;1.13;;;;;;;16.67;57.01;101664.53;5120287;27;20036;-84
2022/08/02 01:29:05;;;;;;;5.03;1.55;;;;;;;16.69;57.10;101655.25;5120555;27;20110;-84
2022/08/02 01:31:48;;;;;;;4.78;1.50;;;;;;;16.69;56.27;101661.56;5108698;27;20032;-85
2022/08/02 01:34:28;;;;;;;6.03;1.60;;;;;;;16.70;57.63;101667.88;5119854;27;20041;-85
2022/08/02 01:36:59;;;;;;;6.53;1.80;;;;;;;16.73;57.33;101664.69;5120160;27;20023;-85
2022/08/02 01:39:27;;;;;;;3.05;1.60;;;;;;;16.70;57.17;101659.66;5120266;27;20072;-84
2022/08/02 01:41:55;;;;;;;7.93;1.33;;;;;;;16.67;57.24;101659.06;5120210;27;20069;-84
2022/08/02 01:44:23;;;;;;;5.03;1.20;;;;;;;16.64;57.86;101656.78;5119862;27;20063;-85
2022/08/02 01:46:50;;;;;;;3.07;1.40;;;;;;;16.59;58.58;101656.66;5138019;27;20540;-85
2022/08/02 01:49:19;;;;;;;5.05;1.63;;;;;;;16.58;58.21;101651.41;5154265;27;20039;-84
2022/08/02 01:54:35;;;;;;;3.33;1.45;;;;;;;16.49;58.53;101650.94;5138216;27;20082;-84
2022/08/02 01:57:04;;;;;;;6.95;1.70;;;;;;;16.48;58.25;101644.63;5119243;27;20055;-84
2022/08/02 01:59:30;;;;;;;5.17;1.60;;;;;;;16.48;58.85;101638.31;5120511;27;20110;-84
2022/08/02 02:01:58;;;;;;;4.55;1.98;;;;;;;16.43;58.67;101641.75;5154243;27;20081;-84
2022/08/02 02:04:25;;;;;;;6.18;1.60;;;;;;;16.41;58.75;101637.59;5102521;27;20031;-84
2022/08/02 02:06:51;;;;;;;5.63;1.40;;;;;;;16.40;59.78;101636.75;5119377;27;20046;-84
2022/08/02 02:09:18;;;;;;;4.15;1.60;;;;;;;16.39;59.83;101634.25;5102801;27;20053;-84
2022/08/02 02:11:45;;;;;;;3.27;1.40;;;;;;;16.38;60.03;101624.38;5137577;27;20062;-84
2022/08/02 02:14:12;;;;;;;5.63;1.30;;;;;;;16.37;60.07;101625.44;5119321;27;20033;-84
2022/08/02 02:16:42;;;;;;;3.63;1.40;;;;;;;16.34;60.69;101623.97;5102209;27;20037;-84
2022/08/02 02:19:09;;;;;;;4.78;1.60;;;;;;;16.30;60.73;101620.06;5120126;27;20451;-84
2022/08/02 02:21:36;;;;;;;8.27;1.70;;;;;;;16.30;60.97;101623.63;5119173;27;20027;-84
2022/08/02 02:24:01;;;;;;;4.53;1.70;;;;;;;16.29;61.11;101610.19;5118783;27;20027;-84
2022/08/02 02:26:29;;;;;;;6.60;1.80;;;;;;;16.22;61.40;101607.53;5102568;27;20054;-84
2022/08/02 02:28:57;;;;;;;6.93;1.50;;;;;;;16.19;61.40;101605.25;5101933;27;20035;-84
2022/08/02 02:31:23;;;;;;;7.30;1.65;;;;;;;16.18;61.87;101605.50;5119064;27;20034;-84
2022/08/02 02:34:00;;;;;;;5.83;1.70;;;;;;;16.17;61.59;101601.13;5119244;27;20064;-84
2022/08/02 02:36:27;;;;;;;5.10;1.52;;;;;;;16.12;62.61;101602.66;5118808;27;20031;-85
2022/08/02 02:38:56;;;;;;;5.82;1.65;;;;;;;16.09;62.34;101605.00;5135985;27;20034;-84
2022/08/02 02:41:23;;;;;;;4.57;1.60;;;;;;;16.08;62.91;101615.13;5118560;27;20031;-84
2022/08/02 02:43:51;;;;;;;7.43;1.50;;;;;;;16.04;62.81;101608.44;5135892;27;20391;-84
2022/08/02 02:46:20;;;;;;;4.50;1.70;;;;;;;16.01;63.21;101613.56;5136901;27;20474;-85
2022/08/02 02:48:46;;;;;;;3.83;1.95;;;;;;;15.99;63.62;101610.22;5118944;27;20581;-84
2022/08/02 02:51:12;;;;;;;5.47;1.65;;;;;;;15.96;64.00;101604.16;5101617;27;20125;-85
2022/08/02 02:53:39;;;;;;;5.50;1.83;;;;;;;15.92;63.80;101608.41;5137110;27;20038;-84
2022/08/02 02:56:05;;;;;;;4.50;1.73;;;;;;;15.91;64.95;101605.91;5119024;27;20035;-84
2022/08/02 02:58:31;;;;;;;8.38;1.83;;;;;;;15.87;63.96;101605.56;5118457;27;20126;-85
2022/08/02 03:03:43;;;;;;;6.73;1.83;;;;;;;15.75;64.81;101610.94;5136885;27;20135;-84
2022/08/02 03:06:11;;;;;;;4.70;1.88;;;;;;;15.71;64.77;101601.53;5137046;27;20056;-85
2022/08/02 03:08:37;;;;;;;4.38;1.40;;;;;;;15.70;65.75;101593.56;5101077;27;20051;-84
2022/08/02 03:11:02;;;;;;;4.47;1.40;;;;;;;15.64;65.02;101592.56;5084710;27;20383;-84
2022/08/02 03:13:30;;;;;;;6.72;1.60;;;;;;;15.62;65.01;101597.44;5118426;27;20364;-84
2022/08/02 03:15:56;;;;;;;6.43;1.70;;;;;;;15.61;66.60;101588.38;5101198;27;20063;-84
2022/08/02 03:18:32;;;;;;;9.15;1.60;;;;;;;15.59;65.18;101597.91;5084790;27;20073;-84
2022/08/02 03:21:06;;;;;;;5.07;1.67;;;;;;;15.60;65.29;101600.41;5118427;27;20031;-84
2022/08/02 03:23:32;;;;;;;7.03;1.70;;;;;;;15.59;65.67;101589.72;5136483;27;20061;-84
2022/08/02 03:25:58;;;;;;;7.32;1.95;;;;;;;15.57;65.61;101589.91;5136447;27;20028;-84
2022/08/02 03:28:24;;;;;;;4.82;1.70;;;;;;;15.58;65.99;101596.22;5136364;27;20027;-85
2022/08/02 03:30:50;;;;;;;8.45;1.77;;;;;;;15.60;68.07;101605.03;5117814;27;20054;-84
2022/08/02 03:33:17;;;;;;;7.67;2.00;;;;;;;15.60;69.37;101610.50;5100467;27;20067;-84
2022/08/02 03:35:44;;;;;;;6.63;1.80;;;;;;;15.56;69.07;101601.94;5100936;27;20334;-84
2022/08/02 03:38:12;;;;;;;8.75;1.90;;;;;;;15.50;67.71;101597.38;5117519;27;20027;-84
2022/08/02 03:40:38;;;;;;;5.75;2.05;;;;;;;15.50;68.06;101591.91;5117273;27;20027;-84
2022/08/02 03:43:04;;;;;;;6.32;1.73;;;;;;;15.49;67.28;101581.22;5135208;27;20035;-84
2022/08/02 03:45:30;;;;;;;5.00;1.90;;;;;;;15.50;67.82;101583.72;5117602;27;20066;-84
2022/08/02 03:47:57;;;;;;;3.90;2.10;;;;;;;15.46;66.51;101582.50;5100830;27;20408;-84
2022/08/02 03:50:23;;;;;;;5.53;1.80;;;;;;;15.44;66.61;101584.63;5117719;27;20490;-84
2022/08/02 03:52:49;;;;;;;5.35;2.20;;;;;;;15.45;67.40;101580.81;5117065;27;20031;-84
2022/08/02 03:55:14;;;;;;;4.67;2.20;;;;;;;15.46;67.34;101576.19;5117543;27;20065;-84
2022/08/02 03:57:41;;;;;;;5.13;2.10;;;;;;;15.50;67.08;101572.78;5083355;27;20035;-84
2022/08/02 04:00:09;;;;;;;6.73;2.20;;;;;;;15.51;67.15;101568.13;5117525;27;20463;-84
2022/08/02 04:02:40;;;;;;;4.82;2.17;;;;;;;15.51;67.41;101579.91;5107939;27;1347719;-82
2022/08/02 04:05:06;;;;;;;6.67;2.30;;;;;;;15.52;66.70;101562.44;5130652;28;20043;-82
2022/08/02 04:07:31;;;;;;;8.70;2.90;;;;;;;15.54;67.77;101563.03;5096041;28;20041;-81
2022/08/02 04:09:56;;;;;;;6.95;2.20;;;;;;;15.58;67.38;101560.69;5113652;28;20519;-82
2022/08/02 04:12:22;;;;;;;6.33;2.63;;;;;;;15.58;67.65;101556.03;5131994;28;20046;-82
2022/08/02 04:14:47;;;;;;;6.30;2.53;;;;;;;15.59;67.79;101565.91;5130705;28;20090;-82
2022/08/02 04:17:15;;;;;;;8.70;2.30;;;;;;;15.59;67.41;101559.63;5130665;28;20019;-82
2022/08/02 04:19:52;;;;;;;6.32;2.50;;;;;;;15.59;67.43;101563.19;5130533;28;20032;-82
2022/08/02 04:22:50;;;;;;;7.25;2.22;;;;;;;15.60;67.47;101562.13;5130470;28;20036;-82
2022/08/02 04:25:17;;;;;;;6.03;2.60;;;;;;;15.60;68.33;101564.00;5098354;27;20040;-82
2022/08/02 04:27:44;;;;;;;6.03;2.53;;;;;;;15.62;69.08;101570.09;5131851;27;20456;-82
2022/08/02 04:30:10;;;;;;;8.27;3.00;;;;;;;15.60;68.94;101570.31;5130516;28;20503;-82
2022/08/02 04:32:36;;;;;;;9.35;3.10;;;;;;;15.64;68.90;101569.84;5130575;28;20071;-82
2022/08/02 04:35:02;;;;;;;5.43;2.80;;;;;;;15.65;69.13;101569.63;5131884;27;20047;-82
2022/08/02 04:37:27;;;;;;;4.17;2.73;;;;;;;15.68;69.53;101574.63;5112646;28;20035;-82
2022/08/02 04:39:52;;;;;;;8.15;3.17;;;;;;;15.71;69.66;101576.91;5130347;28;20067;-82
2022/08/02 04:42:25;;;;;;;7.73;3.03;;;;;;;15.74;69.02;101572.88;5112976;28;20429;-82
2022/08/02 04:44:52;;;;;;;5.97;2.72;;;;;;;15.78;69.85;101574.09;5113256;28;20512;-83
2022/08/02 04:47:19;;;;;;;9.50;2.70;;;;;;;15.83;70.07;101574.25;5130357;28;20110;-83
2022/08/02 04:49:45;;;;;;;9.68;3.45;;;;;;;15.88;70.36;101577.09;5130566;28;20084;-83
2022/08/02 04:52:13;;;;;;;8.38;3.83;;;;;;;15.91;70.37;101578.53;5130096;28;20455;-83
2022/08/02 04:54:39;;;;;;;7.45;3.60;;;;;;;15.91;69.81;101568.41;5113172;28;20111;-83
2022/08/02 04:59:49;;;;;;;7.45;2.92;;;;;;;15.94;70.42;101564.38;5130990;28;20038;-83
2022/08/02 05:02:14;;;;;;;7.97;3.60;;;;;;;15.93;70.87;101562.75;5129393;28;20059;-83
2022/08/02 05:04:39;;;;;;;9.45;4.00;;;;;;;15.94;71.13;101565.25;5112540;28;20035;-89
2022/08/02 05:07:05;;;;;;;8.67;4.53;;;;;;;15.99;71.89;101558.22;5129488;28;20031;-89
2022/08/02 05:09:30;;;;;;;8.13;3.73;;;;;;;16.06;71.96;101556.19;5112950;28;20041;-90
2022/08/02 05:11:56;;;;;;;11.80;4.53;;;;;;;16.08;71.93;101559.56;5111751;28;20486;-90
2022/08/02 05:14:22;;;;;;;7.23;4.00;;;;;;;16.16;72.07;101566.59;5116138;28;20114;-92
2022/08/02 05:16:47;;;;;;;16.50;4.80;;;;;;;16.22;72.04;101562.91;5117867;28;20020;-90
2022/08/02 05:19:13;;;;;;;5.60;4.07;;;;;;;16.28;72.52;101560.06;5115612;28;20120;-86
2022/08/02 05:21:38;;;;;;;7.28;3.60;;;;;;;16.37;72.17;101557.81;5115706;28;20027;-89
2022/08/02 05:24:04;;;;;;;10.67;4.27;;;;;;;16.41;72.04;101549.94;5116548;28;20074;-93
2022/08/02 05:26:29;;;;;;;8.35;4.78;;;;;;;16.51;72.59;101555.66;5115558;28;20488;-90
2022/08/02 05:28:55;;;;;;;9.43;4.77;;;;;;;16.59;72.53;101557.22;5117362;28;20118;-88
2022/08/02 05:31:23;;;;;;;9.40;4.70;;;;;;;16.67;72.81;101543.16;5081937;28;20035;-86
2022/08/02 05:33:48;;;;;;;9.23;5.15;;;;;;;16.75;72.48;101540.03;5116003;28;20467;-87
2022/08/02 05:36:14;;;;;;;8.90;4.72;;;;;;;16.83;73.02;101539.69;5116348;28;20036;-87
2022/08/02 05:38:39;;;;;;;11.50;5.20;;;;;;;16.91;73.09;101544.00;5097846;28;20036;-87
2022/08/02 05:41:05;;;;;;;10.57;4.67;;;;;;;16.98;72.91;101549.34;5115608;28;20032;-88
2022/08/02 05:43:33;;;;;;;8.32;5.28;;;;;;;17.04;73.07;101542.03;5115509;28;20027;-89
2022/08/02 05:45:59;;;;;;;9.07;5.18;;;;;;;17.12;72.97;101548.00;5116116;28;20036;-88
2022/08/02 05:48:24;;;;;;;8.00;4.67;;;;;;;17.21;72.91;101548.44;5098583;28;20108;-87
2022/08/02 05:50:57;;;;;;;9.03;5.67;;;;;;;17.27;73.19;101554.88;5116723;28;20109;-89
2022/08/02 05:53:39;;;;;;;11.15;5.15;;;;;;;17.35;72.54;101557.25;5115256;28;20093;-89
2022/08/02 05:56:12;;;;;;;9.02;5.15;;;;;;;17.46;72.87;101552.78;5115168;28;20078;-86
2022/08/02 05:59:00;;;;;;;11.85;5.60;;;;;;;17.61;72.05;101561.31;5116341;28;20119;-88
2022/08/02 06:01:32;;;;;;;11.03;4.80;;;;;;;17.70;72.97;101570.81;5114505;28;20055;-88
2022/08/02 06:03:59;;;;;;;12.30;5.35;;;;;;;17.76;72.85;101570.91;5114949;28;20072;-88
2022/08/02 06:06:27;;;;;;;12.13;5.95;;;;;;;17.84;72.71;101570.50;5116065;28;20106;-88
2022/08/02 06:08:59;;;;;;;10.70;5.50;;;;;;;17.92;72.19;101575.63;5114497;28;20464;-88
2022/08/02 06:11:34;;;;;;;8.75;5.38;;;;;;;17.97;72.14;101577.66;5115690;28;20031;-88
2022/08/02 06:14:02;;;;;;;10.80;5.20;;;;;;;18.09;72.22;101583.06;5114787;28;20028;-88
2022/08/02 06:16:28;;;;;;;8.07;5.20;;;;;;;18.21;71.59;101581.06;5115999;28;20028;-87
2022/08/02 06:18:54;;;;;;;8.95;5.57;;;;;;;18.28;71.89;101578.16;5115061;28;20054;-88
2022/08/02 06:21:20;;;;;;;12.02;5.97;;;;;;;18.27;71.63;101579.25;5097488;28;20471;-87
2022/08/02 06:23:49;;;;;;;9.87;6.07;;;;;;;18.23;71.77;101581.66;5097508;28;20039;-88
2022/08/02 06:26:15;;;;;;;12.15;6.25;;;;;;;18.22;72.17;101580.81;5114027;28;20626;-88
2022/08/02 06:28:44;;;;;;;12.88;6.35;;;;;;;18.16;72.65;101578.22;5114328;28;20027;-88
2022/08/02 06:31:11;;;;;;;11.80;6.40;;;;;;;18.15;72.92;101576.59;5114448;28;20024;-88
2022/08/02 06:33:37;;;;;;;15.85;6.32;;;;;;;18.16;73.24;101559.84;5114467;28;20028;-88
2022/08/02 06:36:09;;;;;;;9.30;6.60;;;;;;;18.21;73.45;101565.41;5113716;28;20073;-88
2022/08/02 06:38:41;;;;;;;10.55;6.40;;;;;;;18.21;72.95;101561.84;5113965;28;20028;-88
2022/08/02 06:41:10;;;;;;;8.60;6.50;;;;;;;18.23;73.45;101563.28;5115320;28;20059;-88
2022/08/02 06:43:41;;;;;;;14.40;6.03;;;;;;;18.32;72.98;101569.19;5114019;28;20030;-88
2022/08/02 06:46:07;;;;;;;10.25;7.28;;;;;;;18.33;73.50;101570.81;5114114;28;20038;-88
2022/08/02 06:48:34;;;;;;;12.03;6.93;;;;;;;18.37;74.01;101557.44;5113980;28;20402;-88
2022/08/02 06:51:03;;;;;;;11.57;6.82;;;;;;;18.50;74.50;101559.00;5114790;28;20036;-88
2022/08/02 06:53:29;;;;;;;16.63;7.60;;;;;;;18.57;74.16;101554.16;5113601;28;20051;-88
2022/08/02 06:55:54;;;;;;;18.13;8.82;;;;;;;18.66;74.80;101551.81;5097365;28;20066;-89
2022/08/02 06:58:20;;;;;;;18.20;8.90;;;;;;;18.74;74.69;101554.13;5113828;28;20433;-89
2022/08/02 07:00:47;;;;;;;15.57;8.80;;;;;;;18.80;74.94;101563.31;5114868;28;20032;-88
2022/08/02 07:03:12;;;;;;;15.57;9.20;;;;;;;18.88;75.36;101563.72;5097216;28;20121;-89
2022/08/02 07:05:39;;;;;;;15.65;9.02;;;;;;;18.95;75.10;101554.47;5113671;28;20448;-89
2022/08/02 07:08:05;;;;;;;16.97;8.90;;;;;;;19.06;74.86;101556.22;5114695;28;20043;-89
2022/08/02 07:10:30;;;;;;;14.18;8.70;;;;;;;19.15;75.36;101562.13;5114486;28;20031;-88
2022/08/02 07:12:59;;;;;;;12.17;8.30;;;;;;;19.26;74.31;101566.69;5097146;28;20059;-89
2022/08/02 07:15:24;;;;;;;13.20;8.50;;;;;;;19.35;73.57;101564.31;5096959;28;20027;-89
2022/08/02 07:17:49;;;;;;;12.17;7.67;;;;;;;19.40;73.38;101572.59;5113752;28;20080;-89
2022/08/02 07:20:15;;;;;;;15.07;8.07;;;;;;;19.40;73.16;101562.44;5096631;28;20032;-89
2022/08/02 07:22:41;;;;;;;13.57;7.97;;;;;;;19.46;72.78;101566.91;5096437;28;20416;-89
2022/08/02 07:25:07;;;;;;;15.40;7.05;;;;;;;19.53;71.97;101552.13;5113516;28;20027;-89
2022/08/02 07:27:33;;;;;;;16.90;7.43;;;;;;;19.56;72.41;101549.69;5113373;28;20043;-89
2022/08/02 07:29:59;;;;;;;10.20;6.73;;;;;;;19.59;71.83;101549.19;5096327;28;20460;-89
2022/08/02 07:32:30;;;;;;;10.35;6.40;;;;;;;19.63;71.84;101560.50;5113626;28;20032;-89
2022/08/02 07:34:57;;;;;;;11.43;6.47;;;;;;;19.64;72.14;101549.22;5113384;28;20032;-89
2022/08/02 07:37:25;;;;;;;7.82;5.70;;;;;;;19.74;72.04;101554.00;5112640;28;20032;-89
2022/08/02 07:39:51;;;;;;;11.57;6.17;;;;;;;19.81;71.78;101551.06;5113258;28;20032;-89
2022/08/02 07:42:16;;;;;;;7.85;5.80;;;;;;;19.91;70.62;101562.16;5113231;28;20427;-89
2022/08/02 07:44:42;;;;;;;7.77;5.90;;;;;;;19.91;70.27;101544.81;5113022;28;20032;-89
2022/08/02 07:47:07;;;;;;;9.00;6.00;;;;;;;19.94;70.80;101550.63;5096056;28;20035;-89
2022/08/02 07:49:33;;;;;;;11.57;6.20;;;;;;;20.00;70.96;101551.50;5112880;28;20034;-89
2022/08/02 07:51:58;;;;;;;10.53;5.97;;;;;;;20.09;70.76;101552.72;5112811;28;20031;-88
2022/08/02 07:54:24;;;;;;;8.33;5.67;;;;;;;20.24;70.20;101554.75;5114753;28;20035;-90
2022/08/02 07:56:52;;;;;;;6.00;4.82;;;;;;;20.34;70.15;101567.78;5113025;28;20115;-89
2022/08/02 07:59:17;;;;;;;6.23;4.60;;;;;;;20.46;69.44;101565.69;5112972;28;20027;-90
2022/08/02 08:01:48;;;;;;;7.45;5.18;;;;;;;20.53;68.70;101562.69;5112757;28;20066;-89
2022/08/02 08:04:16;;;;;;;6.85;4.03;;;;;;;20.61;68.66;101561.34;5113253;28;20038;-89
2022/08/02 08:06:42;;;;;;;7.38;3.55;;;;;;;20.68;67.24;101560.06;5113012;28;20444;-89
2022/08/02 08:09:10;;;;;;;8.63;3.70;;;;;;;20.75;66.95;101561.75;5113907;28;20027;-89
2022/08/02 08:11:36;;;;;;;4.80;3.30;;;;;;;20.76;66.01;101555.97;5113148;28;20047;-90
2022/08/02 08:14:01;;;;;;;3.92;3.30;;;;;;;20.82;65.10;101560.41;5112860;28;20027;-89
2022/08/02 08:16:28;;;;;;;5.33;3.70;;;;;;;20.86;65.78;101557.97;5112638;28;20024;-89
2022/08/02 08:18:56;;;;;;;4.78;3.63;;;;;;;20.86;66.13;101555.22;5095907;28;20020;-89
2022/08/02 08:21:21;;;;;;;4.90;3.40;;;;;;;20.94;66.38;101562.13;5103560;28;20529;-89
2022/08/02 08:23:49;;;;;;;4.80;2.83;;;;;;;21.05;65.51;101558.31;5106831;28;20122;-90
2022/08/02 08:26:15;;;;;;;8.45;3.00;;;;;;;21.17;65.59;101556.16;5079771;28;20372;-90
2022/08/02 08:28:40;;;;;;;3.73;2.63;;;;;;;21.23;63.14;101540.47;5094080;28;20028;-90
2022/08/02 08:31:06;;;;;;;3.97;2.70;;;;;;;21.32;62.80;101546.31;5093107;28;20534;-90
2022/08/02 08:33:31;;;;;;;9.75;3.00;;;;;;;21.39;61.97;101538.56;5111740;28;20383;-90
2022/08/02 08:35:57;;;;;;;6.10;3.10;;;;;;;21.50;61.75;101548.56;5114191;28;20035;-92
2022/08/02 08:38:22;;;;;;;8.50;3.10;;;;;;;21.58;60.82;101538.09;5112845;28;20123;-90
2022/08/02 08:40:49;;;;;;;8.23;3.03;;;;;;;21.63;60.21;101538.94;5114265;28;20451;-90
2022/08/02 08:43:15;;;;;;;4.75;2.30;;;;;;;21.77;60.11;101539.22;5098615;28;20034;-90
2022/08/02 08:45:43;;;;;;;9.97;2.90;;;;;;;21.87;58.03;101552.25;5076173;28;20523;-88
2022/08/02 08:48:17;;;;;;;7.90;2.40;;;;;;;21.87;57.77;101542.00;5093804;28;20288;-91
2022/08/02 08:50:55;;;;;;;4.18;2.63;;;;;;;21.85;57.60;101552.50;5096873;28;20028;-88
2022/08/02 08:53:25;;;;;;;5.25;2.08;;;;;;;21.89;56.74;101553.63;5096349;28;20028;-87
2022/08/02 08:55:55;;;;;;;3.85;1.95;;;;;;;21.95;56.05;101550.84;5095810;28;20063;-87
2022/08/02 08:58:21;;;;;;;7.05;2.33;;;;;;;22.00;55.88;101540.66;5079434;28;20485;-87
2022/08/02 09:00:46;;;;;;;5.33;1.90;;;;;;;22.06;52.95;101535.94;5078488;28;20064;-87
2022/08/02 09:03:12;;;;;;;4.20;2.10;;;;;;;22.08;54.46;101533.72;5081810;28;20097;-88
2022/08/02 09:05:39;;;;;;;4.67;1.70;;;;;;;22.14;53.91;101543.66;5108882;28;20411;-87
2022/08/02 09:08:05;;;;;;;4.70;2.13;;;;;;;22.15;53.29;101552.81;5115522;28;20027;-88
2022/08/02 09:10:30;;;;;;;4.80;1.80;;;;;;;22.16;52.06;101541.47;5104336;28;20032;-88
2022/08/02 09:13:15;;;;;;;4.82;1.45;;;;;;;22.21;51.76;101544.22;5096571;28;20094;-85
2022/08/02 09:15:44;;;;;;;5.35;1.60;;;;;;;22.27;51.20;101542.28;5095570;28;20437;-87
2022/08/02 09:18:10;;;;;;;4.67;1.87;;;;;;;22.38;51.74;101540.38;5096550;28;20460;-87
2022/08/02 09:20:57;;;;;;;3.55;2.15;;;;;;;22.47;51.53;101547.00;5095018;28;20468;-87
2022/08/02 09:23:25;;;;;;;5.53;1.92;;;;;;;22.57;52.96;101527.63;5094979;28;20392;-86
2022/08/02 09:26:05;;;;;;;2.70;2.08;;;;;;;22.73;52.39;101531.16;5096512;28;20032;-87
2022/08/02 09:28:33;;;;;;;3.85;2.03;;;;;;;22.87;50.58;101538.88;5096534;28;20059;-87
2022/08/02 09:31:03;;;;;;;8.60;1.80;;;;;;;23.01;47.96;101533.56;5095229;28;20039;-87
2022/08/02 09:33:33;;;;;;;5.30;1.75;;;;;;;23.06;47.58;101531.63;5095037;28;20036;-87
2022/08/02 09:36:13;;;;;;;4.50;1.65;;;;;;;23.09;47.59;101535.75;5095272;28;20063;-87
2022/08/02 09:38:40;;;;;;;4.05;1.70;;;;;;;23.18;48.24;101531.31;5095001;28;20055;-87
2022/08/02 09:41:18;;;;;;;3.28;2.10;;;;;;;23.26;47.60;101539.00;5095056;28;20028;-87
2022/08/02 09:43:44;;;;;;;3.13;1.70;;;;;;;23.33;47.63;101535.13;5094944;28;20555;-87
2022/08/02 09:46:15;;;;;;;4.00;2.30;;;;;;;23.46;47.37;101532.56;5077885;28;20074;-88
2022/08/02 09:48:54;;;;;;;2.97;1.75;;;;;;;23.59;46.32;101527.47;5094789;28;20073;-87
2022/08/02 09:51:34;;;;;;;2.97;1.70;;;;;;;23.79;46.52;101534.84;5094506;28;20024;-87
2022/08/02 09:54:05;;;;;;;3.45;1.90;;;;;;;23.81;44.51;101538.97;5094992;28;20028;-87
2022/08/02 09:56:48;;;;;;;5.25;1.85;;;;;;;23.79;45.41;101555.03;5094729;28;20088;-87
2022/08/02 09:59:16;;;;;;;5.50;1.85;;;;;;;23.70;44.49;101542.09;5096080;28;20032;-87
2022/08/02 10:01:44;;;;;;;3.75;1.83;;;;;;;23.73;45.52;101541.53;5095694;28;20082;-87
2022/08/02 10:04:12;;;;;;;3.00;1.50;;;;;;;23.76;44.71;101529.88;5060603;28;20134;-87
2022/08/02 10:06:39;;;;;;;2.47;1.75;;;;;;;23.87;44.58;101528.69;5094383;28;20082;-87
2022/08/02 10:09:11;;;;;;;3.92;1.85;;;;;;;24.03;44.22;101534.13;5094065;28;20117;-87
2022/08/02 10:11:37;;;;;;;5.50;1.52;;;;;;;24.13;42.90;101542.34;5094768;28;20023;-87
2022/08/02 10:14:06;;;;;;;2.47;1.50;;;;;;;24.23;43.28;101535.91;5094064;28;20051;-87
2022/08/02 10:16:34;;;;;;;4.13;1.70;;;;;;;24.38;42.40;101530.19;5094684;28;20040;-87
2022/08/02 10:19:03;;;;;;;3.22;1.40;;;;;;;24.48;40.64;101537.59;5093914;28;20024;-87
2022/08/02 10:21:33;;;;;;;3.50;1.52;;;;;;;24.64;40.73;101536.34;5093851;28;20039;-87
2022/08/02 10:24:26;;;;;;;4.70;1.52;;;;;;;24.85;40.64;101533.34;5095365;28;20028;-87
2022/08/02 10:26:55;;;;;;;2.38;1.50;;;;;;;25.23;40.32;101527.84;5098226;28;20097;-87
2022/08/02 10:29:28;;;;;;;3.67;1.50;;;;;;;25.62;39.81;101512.06;5095385;28;20085;-87
2022/08/02 10:32:08;;;;;;;5.32;1.38;;;;;;;25.89;38.39;101511.34;5102192;28;20122;-87
2022/08/02 10:34:39;;;;;;;2.10;1.40;;;;;;;26.21;36.95;101515.28;5095321;28;20032;-86
2022/08/02 10:37:07;;;;;;;5.00;1.50;;;;;;;26.83;36.99;101495.47;5093550;28;20032;-87
2022/08/02 10:39:38;;;;;;;4.18;1.50;;;;;;;26.99;35.54;101509.06;5093506;28;20024;-86
2022/08/02 10:42:04;;;;;;;2.03;1.40;;;;;;;26.97;35.86;101512.16;5094086;28;20046;-87
2022/08/02 10:44:31;;;;;;;4.32;1.50;;;;;;;26.77;35.62;101503.09;5093565;28;20118;-87
2022/08/02 10:47:17;;;;;;;2.35;1.30;;;;;;;26.72;35.94;101510.72;5093571;28;20035;-87
2022/08/02 10:49:57;;;;;;;5.27;1.50;;;;;;;26.54;35.95;101516.03;5093582;28;20487;-87
2022/08/02 10:52:29;;;;;;;3.83;1.85;;;;;;;26.44;35.84;101505.09;5076697;28;20032;-87
2022/08/02 10:55:12;;;;;;;9.90;1.85;;;;;;;26.65;36.26;101513.06;5093490;28;20115;-87
2022/08/02 10:57:38;;;;;;;18.08;2.55;;;;;;;27.00;36.37;101510.72;5076891;28;20462;-87
2022/08/02 11:00:24;;;;;;;9.70;1.63;;;;;;;27.35;34.98;101508.31;5076358;28;20124;-87
2022/08/02 11:02:51;;;;;;;5.97;1.75;;;;;;;27.07;35.13;101506.34;5094571;28;20055;-87
2022/08/02 11:05:31;;;;;;;15.45;2.72;;;;;;;26.98;35.83;101499.06;5076389;28;20036;-87
2022/08/02 11:07:56;;;;;;;13.77;2.53;;;;;;;27.27;35.79;101510.66;5092741;28;20028;-87
2022/08/02 11:10:30;;;;;;;4.68;1.60;;;;;;;27.52;33.86;101513.19;5092649;28;20040;-84
2022/08/02 11:13:05;;;;;;;2.67;1.20;;;;;;;27.70;33.27;101508.59;5093044;28;20032;-84
2022/08/02 11:15:48;;;;;;;4.40;1.30;;;;;;;27.88;32.93;101502.00;5093100;28;20521;-85
2022/08/02 11:18:14;;;;;;;2.28;1.15;;;;;;;27.98;32.89;101504.56;5093216;28;20098;-84
2022/08/02 11:20:40;;;;;;;4.68;1.52;;;;;;;28.45;31.83;101501.38;5092825;28;20043;-84
2022/08/02 11:23:33;;;;;;;4.97;1.47;;;;;;;28.95;31.59;101497.47;5076076;28;20024;-85
2022/08/02 11:25:58;;;;;;;5.13;1.50;;;;;;;30.08;29.67;101499.47;5094315;28;20084;-85
2022/08/02 11:28:24;;;;;;;5.40;1.57;;;;;;;31.14;27.14;101503.47;5075902;28;20071;-85
2022/08/02 11:31:00;;;;;;;17.95;2.80;;;;;;;32.53;26.71;101486.47;5094121;28;20046;-85
2022/08/02 11:33:30;;;;;;;24.85;3.17;;;;;;;32.75;24.77;101511.66;5092736;28;20028;-84
2022/08/02 11:36:04;;;;;;;36.13;4.60;;;;;;;31.88;25.25;101489.03;5076226;28;20039;-84
2022/08/02 11:38:29;;;;;;;3.58;1.60;;;;;;;31.09;26.46;101491.63;5092534;28;20034;-85
2022/08/02 11:40:55;;;;;;;2.28;1.45;;;;;;;30.79;27.24;101488.84;5092580;28;20032;-85